createdAt,value
2023-04-07T00:00:00.788Z,1013.81
2023-04-07T00:01:01.121Z,1013.82
2023-04-07T00:02:01.390Z,1013.86
2023-04-07T00:03:01.726Z,1013.79
2023-04-07T00:04:02.508Z,1013.82
2023-04-07T00:05:02.294Z,1013.80
2023-04-07T00:06:02.477Z,1013.79
2023-04-07T00:07:02.715Z,1013.84
2023-04-07T00:08:02.962Z,1013.83
2023-04-07T00:09:03.282Z,1013.84
2023-04-07T00:10:03.504Z,1013.85
2023-04-07T00:11:03.858Z,1013.83
2023-04-07T00:12:04.072Z,1013.82
2023-04-07T00:13:04.410Z,1013.81
2023-04-07T00:14:04.646Z,1013.83
2023-04-07T00:15:04.861Z,1013.81
2023-04-07T00:16:05.182Z,1013.81
2023-04-07T00:17:05.394Z,1013.78
2023-04-07T00:18:05.757Z,1013.83
2023-04-07T00:19:05.904Z,1013.80
2023-04-07T00:20:06.112Z,1013.81
2023-04-07T00:21:06.444Z,1013.80
2023-04-07T00:22:06.702Z,1013.81
2023-04-07T00:23:06.893Z,1013.82
2023-04-07T00:24:07.127Z,1013.80
2023-04-07T00:25:07.464Z,1013.83
2023-04-07T00:26:07.691Z,1013.87
2023-04-07T00:27:08.042Z,1013.85
2023-04-07T00:28:08.267Z,1013.84
2023-04-07T00:29:08.604Z,1013.83
2023-04-07T00:30:08.842Z,1013.89
2023-04-07T00:31:09.233Z,1013.80
2023-04-07T00:32:09.439Z,1013.83
2023-04-07T00:33:10.116Z,1013.83
2023-04-07T00:34:09.898Z,1013.86
2023-04-07T00:35:10.244Z,1013.85
2023-04-07T00:36:10.607Z,1013.87
2023-04-07T00:37:10.927Z,1013.87
2023-04-07T00:38:11.157Z,1013.82
2023-04-07T00:39:11.502Z,1013.86
2023-04-07T00:40:11.735Z,1013.77
2023-04-07T00:41:12.081Z,1013.77
2023-04-07T00:42:12.416Z,1013.74
2023-04-07T00:43:12.773Z,1013.70
2023-04-07T00:44:13.003Z,1013.74
2023-04-07T00:45:13.348Z,1013.70
2023-04-07T00:46:13.589Z,1013.71
2023-04-07T00:47:13.919Z,1013.71
2023-04-07T00:48:14.144Z,1013.72
2023-04-07T00:49:14.490Z,1013.68
2023-04-07T00:50:14.712Z,1013.72
2023-04-07T00:51:15.071Z,1013.70
2023-04-07T00:52:15.316Z,1013.72
2023-04-07T00:53:15.698Z,1013.70
2023-04-07T00:54:15.914Z,1013.74
2023-04-07T00:55:16.275Z,1013.73
2023-04-07T00:56:16.510Z,1013.70
2023-04-07T00:57:16.856Z,1013.72
2023-04-07T00:58:17.091Z,1013.65
2023-04-07T00:59:17.415Z,1013.68
2023-04-07T01:00:17.653Z,1013.64
2023-04-07T01:01:17.924Z,1013.65
2023-04-07T01:02:18.283Z,1013.65
2023-04-07T01:03:18.796Z,1013.61
2023-04-07T01:04:18.763Z,1013.61
2023-04-07T01:05:18.947Z,1013.63
2023-04-07T01:06:19.201Z,1013.64
2023-04-07T01:07:19.413Z,1013.63
2023-04-07T01:08:19.641Z,1013.59
2023-04-07T01:09:19.892Z,1013.59
2023-04-07T01:10:20.114Z,1013.60
2023-04-07T01:11:20.455Z,1013.55
2023-04-07T01:12:20.797Z,1013.58
2023-04-07T01:13:21.138Z,1013.56
2023-04-07T01:14:21.353Z,1013.56
2023-04-07T01:15:21.726Z,1013.54
2023-04-07T01:16:21.994Z,1013.53
2023-04-07T01:17:22.333Z,1013.53
2023-04-07T01:18:22.547Z,1013.52
2023-04-07T01:19:22.898Z,1013.47
2023-04-07T01:20:23.237Z,1013.44
2023-04-07T01:21:23.477Z,1013.48
2023-04-07T01:22:23.707Z,1013.44
2023-04-07T01:23:24.048Z,1013.45
2023-04-07T01:24:24.291Z,1013.45
2023-04-07T01:25:24.629Z,1013.46
2023-04-07T01:26:24.851Z,1013.42
2023-04-07T01:27:25.211Z,1013.41
2023-04-07T01:28:25.479Z,1013.41
2023-04-07T01:29:25.675Z,1013.42
2023-04-07T01:30:26.050Z,1013.40
2023-04-07T01:31:26.321Z,1013.40
2023-04-07T01:32:26.576Z,1013.38
2023-04-07T01:33:26.767Z,1013.38
2023-04-07T01:34:27.101Z,1013.38
2023-04-07T01:35:27.438Z,1013.39
2023-04-07T01:36:27.664Z,1013.39
2023-04-07T01:37:28.007Z,1013.43
2023-04-07T01:38:28.349Z,1013.43
2023-04-07T01:39:28.583Z,1013.38
2023-04-07T01:40:28.840Z,1013.42
2023-04-07T01:41:29.059Z,1013.38
2023-04-07T01:42:29.434Z,1013.41
2023-04-07T01:43:29.669Z,1013.38
2023-04-07T01:44:29.905Z,1013.38
2023-04-07T01:45:30.124Z,1013.33
2023-04-07T01:46:30.483Z,1013.35
2023-04-07T01:47:30.811Z,1013.35
2023-04-07T01:48:30.983Z,1013.37
2023-04-07T01:49:31.302Z,1013.35
2023-04-07T01:50:31.645Z,1013.33
2023-04-07T01:51:31.905Z,1013.34
2023-04-07T01:52:32.154Z,1013.34
2023-04-07T01:53:32.386Z,1013.36
2023-04-07T01:54:32.743Z,1013.31
2023-04-07T01:55:32.984Z,1013.29
2023-04-07T01:56:33.212Z,1013.31
2023-04-07T01:57:33.586Z,1013.31
2023-04-07T01:58:33.812Z,1013.27
2023-04-07T01:59:34.040Z,1013.37
2023-04-07T02:00:34.414Z,1013.31
2023-04-07T02:01:34.699Z,1013.30
2023-04-07T02:02:35.010Z,1013.31
2023-04-07T02:03:35.332Z,1013.29
2023-04-07T02:04:35.473Z,1013.31
2023-04-07T02:05:35.696Z,1013.29
2023-04-07T02:06:36.069Z,1013.34
2023-04-07T02:07:36.294Z,1013.28
2023-04-07T02:08:36.660Z,1013.27
2023-04-07T02:09:36.881Z,1013.29
2023-04-07T02:10:37.117Z,1013.31
2023-04-07T02:11:37.349Z,1013.31
2023-04-07T02:12:37.735Z,1013.26
2023-04-07T02:13:37.972Z,1013.27
2023-04-07T02:14:38.304Z,1013.30
2023-04-07T02:15:38.533Z,1013.27
2023-04-07T02:16:38.831Z,1013.26
2023-04-07T02:17:39.051Z,1013.26
2023-04-07T02:18:39.256Z,1013.25
2023-04-07T02:19:39.599Z,1013.24
2023-04-07T02:20:39.830Z,1013.23
2023-04-07T02:21:40.051Z,1013.24
2023-04-07T02:22:40.424Z,1013.24
2023-04-07T02:23:40.664Z,1013.21
2023-04-07T02:24:41.003Z,1013.20
2023-04-07T02:25:41.254Z,1013.21
2023-04-07T02:26:41.576Z,1013.17
2023-04-07T02:27:41.831Z,1013.19
2023-04-07T02:28:42.075Z,1013.19
2023-04-07T02:29:42.299Z,1013.20
2023-04-07T02:30:42.655Z,1013.17
2023-04-07T02:31:42.964Z,1013.17
2023-04-07T02:32:43.261Z,1013.18
2023-04-07T02:33:43.485Z,1013.15
2023-04-07T02:34:43.847Z,1013.19
2023-04-07T02:35:44.094Z,1013.17
2023-04-07T02:36:44.447Z,1013.09
2023-04-07T02:37:44.689Z,1013.17
2023-04-07T02:38:44.912Z,1013.15
2023-04-07T02:39:45.135Z,1013.12
2023-04-07T02:40:45.496Z,1013.14
2023-04-07T02:41:45.725Z,1013.13
2023-04-07T02:42:46.097Z,1013.10
2023-04-07T02:43:46.350Z,1013.11
2023-04-07T02:44:46.695Z,1013.10
2023-04-07T02:45:46.943Z,1013.12
2023-04-07T02:46:47.284Z,1013.15
2023-04-07T02:47:47.588Z,1013.11
2023-04-07T02:48:47.781Z,1013.09
2023-04-07T02:49:48.039Z,1013.07
2023-04-07T02:50:48.352Z,1013.09
2023-04-07T02:51:48.694Z,1013.09
2023-04-07T02:52:48.946Z,1013.11
2023-04-07T02:53:49.171Z,1013.10
2023-04-07T02:54:49.515Z,1013.11
2023-04-07T02:55:49.762Z,1013.09
2023-04-07T02:56:50.105Z,1013.11
2023-04-07T02:57:50.353Z,1013.12
2023-04-07T02:58:50.582Z,1013.10
2023-04-07T02:59:50.806Z,1013.12
2023-04-07T03:00:51.158Z,1013.10
2023-04-07T03:01:51.477Z,1013.10
2023-04-07T03:02:51.798Z,1013.10
2023-04-07T03:03:52.277Z,1013.11
2023-04-07T03:04:52.236Z,1013.08
2023-04-07T03:05:52.464Z,1013.11
2023-04-07T03:06:52.823Z,1013.07
2023-04-07T03:07:53.064Z,1013.09
2023-04-07T03:08:53.309Z,1013.11
2023-04-07T03:09:53.535Z,1013.09
2023-04-07T03:10:53.887Z,1013.09
2023-04-07T03:11:54.133Z,1013.08
2023-04-07T03:12:54.374Z,1013.10
2023-04-07T03:13:54.787Z,1013.06
2023-04-07T03:14:54.946Z,1013.07
2023-04-07T03:15:55.185Z,1013.05
2023-04-07T03:16:55.454Z,1013.08
2023-04-07T03:17:55.675Z,1013.07
2023-04-07T03:18:55.897Z,1013.06
2023-04-07T03:19:56.132Z,1013.04
2023-04-07T03:20:56.474Z,1013.05
2023-04-07T03:21:56.710Z,1013.00
2023-04-07T03:22:56.947Z,1013.02
2023-04-07T03:23:57.186Z,1013.03
2023-04-07T03:24:57.414Z,1012.97
2023-04-07T03:25:57.748Z,1012.96
2023-04-07T03:26:58.106Z,1012.96
2023-04-07T03:27:58.340Z,1012.96
2023-04-07T03:28:58.693Z,1012.99
2023-04-07T03:29:58.930Z,1012.95
2023-04-07T03:30:59.232Z,1012.96
2023-04-07T03:31:59.464Z,1012.94
2023-04-07T03:32:59.802Z,1012.96
2023-04-07T03:34:00.008Z,1012.90
2023-04-07T03:35:00.260Z,1012.93
2023-04-07T03:36:00.541Z,1012.91
2023-04-07T03:37:01.727Z,1012.88
2023-04-07T03:38:01.059Z,1012.90
2023-04-07T03:39:01.409Z,1012.88
2023-04-07T03:40:01.630Z,1012.89
2023-04-07T03:41:01.990Z,1012.91
2023-04-07T03:42:02.230Z,1012.84
2023-04-07T03:43:02.566Z,1012.83
2023-04-07T03:44:02.900Z,1012.85
2023-04-07T03:45:03.241Z,1012.86
2023-04-07T03:46:03.511Z,1012.89
2023-04-07T03:47:03.821Z,1012.90
2023-04-07T03:48:04.108Z,1012.90
2023-04-07T03:49:04.339Z,1012.89
2023-04-07T03:50:04.578Z,1012.87
2023-04-07T03:51:04.814Z,1012.89
2023-04-07T03:52:05.026Z,1012.87
2023-04-07T03:53:05.369Z,1012.86
2023-04-07T03:54:05.599Z,1012.85
2023-04-07T03:55:05.949Z,1012.86
2023-04-07T03:56:06.197Z,1012.84
2023-04-07T03:57:06.487Z,1012.85
2023-04-07T03:58:06.725Z,1012.82
2023-04-07T03:59:06.993Z,1012.87
2023-04-07T04:00:07.293Z,1012.85
2023-04-07T04:01:07.645Z,1012.86
2023-04-07T04:02:08.022Z,1012.82
2023-04-07T04:03:08.223Z,1012.85
2023-04-07T04:04:08.519Z,1012.84
2023-04-07T04:05:08.629Z,1012.85
2023-04-07T04:06:08.894Z,1012.87
2023-04-07T04:07:09.097Z,1012.88
2023-04-07T04:08:09.357Z,1012.90
2023-04-07T04:09:09.595Z,1012.90
2023-04-07T04:10:09.832Z,1012.87
2023-04-07T04:11:10.078Z,1012.88
2023-04-07T04:12:10.305Z,1012.87
2023-04-07T04:13:10.549Z,1012.89
2023-04-07T04:14:10.773Z,1012.86
2023-04-07T04:15:11.118Z,1012.88
2023-04-07T04:16:13.777Z,1012.86
2023-04-07T04:17:11.667Z,1012.84
2023-04-07T04:18:11.910Z,1012.87
2023-04-07T04:19:12.238Z,1012.88
2023-04-07T04:20:12.485Z,1012.91
2023-04-07T04:21:12.798Z,1012.89
2023-04-07T04:22:13.032Z,1012.95
2023-04-07T04:23:13.386Z,1012.96
2023-04-07T04:24:13.624Z,1012.94
2023-04-07T04:25:13.875Z,1012.93
2023-04-07T04:26:14.161Z,1012.93
2023-04-07T04:27:14.514Z,1012.93
2023-04-07T04:28:14.735Z,1012.92
2023-04-07T04:29:15.084Z,1012.90
2023-04-07T04:30:15.327Z,1012.87
2023-04-07T04:31:15.634Z,1012.90
2023-04-07T04:32:22.886Z,1012.90
2023-04-07T04:33:16.038Z,1012.89
2023-04-07T04:34:16.264Z,1012.92
2023-04-07T04:35:16.625Z,1012.94
2023-04-07T04:36:16.862Z,1012.87
2023-04-07T04:37:17.081Z,1012.89
2023-04-07T04:38:17.303Z,1012.92
2023-04-07T04:39:17.652Z,1012.93
2023-04-07T04:40:17.877Z,1012.93
2023-04-07T04:41:18.157Z,1012.97
2023-04-07T04:42:18.375Z,1012.93
2023-04-07T04:43:18.720Z,1012.93
2023-04-07T04:44:18.931Z,1012.93
2023-04-07T04:45:19.170Z,1012.98
2023-04-07T04:46:19.399Z,1012.94
2023-04-07T04:47:19.673Z,1012.94
2023-04-07T04:48:19.906Z,1012.95
2023-04-07T04:49:20.259Z,1012.96
2023-04-07T04:50:20.480Z,1012.92
2023-04-07T04:51:20.811Z,1012.94
2023-04-07T04:52:21.083Z,1012.98
2023-04-07T04:53:21.299Z,1013.01
2023-04-07T04:54:21.529Z,1013.00
2023-04-07T04:55:21.738Z,1013.00
2023-04-07T04:56:21.972Z,1012.97
2023-04-07T04:57:22.315Z,1012.98
2023-04-07T04:58:22.518Z,1012.98
2023-04-07T04:59:22.775Z,1012.96
2023-04-07T05:00:22.985Z,1012.95
2023-04-07T05:01:23.205Z,1013.01
2023-04-07T05:02:23.663Z,1013.03
2023-04-07T05:03:23.958Z,1013.01
2023-04-07T05:04:24.099Z,1013.04
2023-04-07T05:05:24.183Z,1012.99
2023-04-07T05:06:24.493Z,1012.98
2023-04-07T05:07:24.836Z,1012.99
2023-04-07T05:08:25.081Z,1012.99
2023-04-07T05:09:25.307Z,1012.94
2023-04-07T05:10:25.525Z,1012.94
2023-04-07T05:11:25.918Z,1012.96
2023-04-07T05:12:26.137Z,1012.95
2023-04-07T05:13:26.475Z,1012.96
2023-04-07T05:14:26.707Z,1013.00
2023-04-07T05:15:27.023Z,1013.00
2023-04-07T05:16:27.253Z,1013.02
2023-04-07T05:17:27.599Z,1013.03
2023-04-07T05:18:27.795Z,1013.04
2023-04-07T05:19:28.013Z,1013.00
2023-04-07T05:20:28.319Z,1013.06
2023-04-07T05:21:28.631Z,1013.07
2023-04-07T05:22:28.960Z,1013.04
2023-04-07T05:23:29.299Z,1013.03
2023-04-07T05:24:29.537Z,1013.03
2023-04-07T05:25:29.836Z,1013.03
2023-04-07T05:26:30.035Z,1013.02
2023-04-07T05:27:30.258Z,1013.03
2023-04-07T05:28:30.593Z,1013.00
2023-04-07T05:29:30.806Z,1012.99
2023-04-07T05:30:31.010Z,1013.01
2023-04-07T05:31:31.384Z,1012.99
2023-04-07T05:32:31.590Z,1012.99
2023-04-07T05:33:31.905Z,1013.01
2023-04-07T05:34:32.119Z,1013.01
2023-04-07T05:35:32.443Z,1013.01
2023-04-07T05:36:32.694Z,1013.02
2023-04-07T05:37:32.890Z,1013.01
2023-04-07T05:38:33.126Z,1013.04
2023-04-07T05:39:33.328Z,1013.03
2023-04-07T05:40:35.128Z,1013.05
2023-04-07T05:41:33.865Z,1013.06
2023-04-07T05:42:34.205Z,1013.04
2023-04-07T05:43:34.428Z,1013.04
2023-04-07T05:44:34.679Z,1013.05
2023-04-07T05:45:34.986Z,1013.03
2023-04-07T05:46:35.159Z,1013.04
2023-04-07T05:47:35.409Z,1013.02
2023-04-07T05:48:35.624Z,1013.04
2023-04-07T05:49:35.850Z,1013.02
2023-04-07T05:50:36.172Z,1013.01
2023-04-07T05:51:36.382Z,1013.01
2023-04-07T05:52:36.604Z,1012.99
2023-04-07T05:53:36.820Z,1012.96
2023-04-07T05:54:37.033Z,1013.02
2023-04-07T05:55:37.244Z,1012.97
2023-04-07T05:56:37.481Z,1012.96
2023-04-07T05:57:37.696Z,1012.98
2023-04-07T05:58:38.030Z,1012.97
2023-04-07T05:59:38.233Z,1012.97
2023-04-07T06:00:38.565Z,1012.94
2023-04-07T06:01:38.946Z,1012.94
2023-04-07T06:02:39.167Z,1012.91
2023-04-07T06:03:39.424Z,1012.96
2023-04-07T06:04:39.612Z,1012.93
2023-04-07T06:05:39.830Z,1012.96
2023-04-07T06:06:40.062Z,1012.98
2023-04-07T06:07:40.293Z,1012.96
2023-04-07T06:08:40.628Z,1013.02
2023-04-07T06:09:40.823Z,1013.00
2023-04-07T06:10:41.154Z,1013.03
2023-04-07T06:11:41.375Z,1013.07
2023-04-07T06:12:41.581Z,1013.08
2023-04-07T06:13:41.826Z,1013.06
2023-04-07T06:14:42.035Z,1013.06
2023-04-07T06:15:42.243Z,1013.09
2023-04-07T06:16:42.482Z,1013.13
2023-04-07T06:17:42.724Z,1013.07
2023-04-07T06:18:42.936Z,1013.03
2023-04-07T06:19:43.127Z,1013.06
2023-04-07T06:20:43.453Z,1013.09
2023-04-07T06:21:43.646Z,1013.14
2023-04-07T06:22:43.975Z,1013.14
2023-04-07T06:23:44.205Z,1013.13
2023-04-07T06:24:44.401Z,1013.14
2023-04-07T06:25:44.588Z,1013.14
2023-04-07T06:26:44.903Z,1013.13
2023-04-07T06:27:45.073Z,1013.11
2023-04-07T06:28:45.404Z,1013.12
2023-04-07T06:29:45.604Z,1013.09
2023-04-07T06:30:45.823Z,1013.14
2023-04-07T06:31:46.011Z,1013.16
2023-04-07T06:32:46.254Z,1013.15
2023-04-07T06:33:46.798Z,1013.17
2023-04-07T06:34:46.648Z,1013.17
2023-04-07T06:35:46.958Z,1013.17
2023-04-07T06:36:47.295Z,1013.17
2023-04-07T06:37:47.485Z,1013.18
2023-04-07T06:38:47.812Z,1013.20
2023-04-07T06:39:48.030Z,1013.18
2023-04-07T06:40:48.267Z,1013.20
2023-04-07T06:41:48.463Z,1013.18
2023-04-07T06:42:48.678Z,1013.20
2023-04-07T06:43:49.215Z,1013.21
2023-04-07T06:44:49.149Z,1013.17
2023-04-07T06:45:49.380Z,1013.16
2023-04-07T06:46:49.545Z,1013.15
2023-04-07T06:47:50.018Z,1013.12
2023-04-07T06:48:50.039Z,1013.12
2023-04-07T06:49:50.242Z,1013.13
2023-04-07T06:50:50.433Z,1013.12
2023-04-07T06:51:50.636Z,1013.15
2023-04-07T06:52:50.904Z,1013.16
2023-04-07T06:53:51.115Z,1013.13
2023-04-07T06:54:51.313Z,1013.13
2023-04-07T06:55:51.614Z,1013.15
2023-04-07T06:56:53.583Z,1013.15
2023-04-07T06:57:52.024Z,1013.20
2023-04-07T06:58:52.305Z,1013.21
2023-04-07T06:59:52.483Z,1013.17
2023-04-07T07:00:52.809Z,1013.18
2023-04-07T07:01:53.077Z,1013.20
2023-04-07T07:02:53.417Z,1013.21
2023-04-07T07:03:53.837Z,1013.21
2023-04-07T07:04:53.850Z,1013.20
2023-04-07T07:05:54.017Z,1013.20
2023-04-07T07:06:54.301Z,1013.20
2023-04-07T07:07:54.713Z,1013.20
2023-04-07T07:08:54.752Z,1013.24
2023-04-07T07:09:54.930Z,1013.26
2023-04-07T07:10:55.226Z,1013.26
2023-04-07T07:11:55.400Z,1013.23
2023-04-07T07:12:55.624Z,1013.27
2023-04-07T07:13:55.919Z,1013.28
2023-04-07T07:14:56.042Z,1013.30
2023-04-07T07:15:56.323Z,1013.22
2023-04-07T07:16:56.515Z,1013.23
2023-04-07T07:17:56.795Z,1013.25
2023-04-07T07:18:57.053Z,1013.26
2023-04-07T07:19:57.165Z,1013.27
2023-04-07T07:20:57.456Z,1013.30
2023-04-07T07:21:57.644Z,1013.28
2023-04-07T07:22:57.921Z,1013.29
2023-04-07T07:23:58.198Z,1013.30
2023-04-07T07:24:58.383Z,1013.28
2023-04-07T07:25:58.559Z,1013.26
2023-04-07T07:26:58.854Z,1013.29
2023-04-07T07:27:59.020Z,1013.31
2023-04-07T07:28:59.219Z,1013.32
2023-04-07T07:29:59.407Z,1013.26
2023-04-07T07:30:59.710Z,1013.26
2023-04-07T07:31:59.869Z,1013.24
2023-04-07T07:33:00.080Z,1013.26
2023-04-07T07:34:00.271Z,1013.28
2023-04-07T07:35:00.458Z,1013.28
2023-04-07T07:36:00.661Z,1013.29
2023-04-07T07:37:00.803Z,1013.34
2023-04-07T07:38:00.984Z,1013.34
2023-04-07T07:39:01.194Z,1013.33
2023-04-07T07:40:01.358Z,1013.34
2023-04-07T07:41:01.639Z,1013.40
2023-04-07T07:42:01.833Z,1013.37
2023-04-07T07:43:01.980Z,1013.33
2023-04-07T07:44:02.142Z,1013.37
2023-04-07T07:45:02.309Z,1013.36
2023-04-07T07:46:02.527Z,1013.37
2023-04-07T07:47:02.640Z,1013.40
2023-04-07T07:48:02.863Z,1013.36
2023-04-07T07:49:03.039Z,1013.37
2023-04-07T07:50:03.196Z,1013.38
2023-04-07T07:51:03.352Z,1013.38
2023-04-07T07:52:03.510Z,1013.39
2023-04-07T07:53:03.753Z,1013.41
2023-04-07T07:54:04.063Z,1013.41
2023-04-07T07:55:04.242Z,1013.38
2023-04-07T07:56:04.408Z,1013.39
2023-04-07T07:57:04.580Z,1013.35
2023-04-07T07:58:04.719Z,1013.42
2023-04-07T07:59:04.895Z,1013.43
2023-04-07T08:00:05.042Z,1013.41
2023-04-07T08:01:05.317Z,1013.40
2023-04-07T08:02:05.505Z,1013.42
2023-04-07T08:03:05.695Z,1013.43
2023-04-07T08:04:05.969Z,1013.36
2023-04-07T08:05:06.181Z,1013.38
2023-04-07T08:06:06.305Z,1013.34
2023-04-07T08:07:06.469Z,1013.38
2023-04-07T08:08:06.657Z,1013.35
2023-04-07T08:09:06.868Z,1013.39
2023-04-07T08:10:07.027Z,1013.38
2023-04-07T08:11:07.291Z,1013.38
2023-04-07T08:12:07.472Z,1013.40
2023-04-07T08:13:07.744Z,1013.37
2023-04-07T08:14:09.800Z,1013.36
2023-04-07T08:15:08.166Z,1013.40
2023-04-07T08:16:08.415Z,1013.37
2023-04-07T08:17:08.523Z,1013.41
2023-04-07T08:18:08.773Z,1013.45
2023-04-07T08:19:08.920Z,1013.45
2023-04-07T08:20:09.106Z,1013.49
2023-04-07T08:21:09.291Z,1013.50
2023-04-07T08:22:09.555Z,1013.49
2023-04-07T08:23:09.735Z,1013.45
2023-04-07T08:24:09.907Z,1013.40
2023-04-07T08:25:10.091Z,1013.44
2023-04-07T08:26:10.290Z,1013.38
2023-04-07T08:27:10.500Z,1013.43
2023-04-07T08:28:10.695Z,1013.44
2023-04-07T08:29:10.881Z,1013.41
2023-04-07T08:30:11.058Z,1013.39
2023-04-07T08:31:11.360Z,1013.37
2023-04-07T08:32:11.520Z,1013.39
2023-04-07T08:33:11.689Z,1013.37
2023-04-07T08:34:11.860Z,1013.42
2023-04-07T08:35:12.053Z,1013.42
2023-04-07T08:36:12.291Z,1013.45
2023-04-07T08:37:12.455Z,1013.46
2023-04-07T08:38:12.655Z,1013.48
2023-04-07T08:39:12.836Z,1013.46
2023-04-07T08:40:13.017Z,1013.43
2023-04-07T08:41:13.192Z,1013.47
2023-04-07T08:42:13.367Z,1013.48
2023-04-07T08:43:13.662Z,1013.43
2023-04-07T08:44:13.831Z,1013.39
2023-04-07T08:45:14.010Z,1013.44
2023-04-07T08:46:14.177Z,1013.46
2023-04-07T08:47:14.328Z,1013.41
2023-04-07T08:48:14.475Z,1013.40
2023-04-07T08:49:14.777Z,1013.40
2023-04-07T08:50:14.948Z,1013.44
2023-04-07T08:51:15.200Z,1013.40
2023-04-07T08:52:15.346Z,1013.46
2023-04-07T08:53:15.617Z,1013.50
2023-04-07T08:54:15.776Z,1013.51
2023-04-07T08:55:16.026Z,1013.50
2023-04-07T08:56:16.289Z,1013.49
2023-04-07T08:57:16.450Z,1013.53
2023-04-07T08:58:16.618Z,1013.50
2023-04-07T08:59:16.802Z,1013.53
2023-04-07T09:00:16.974Z,1013.51
2023-04-07T09:01:17.203Z,1013.53
2023-04-07T09:02:17.481Z,1013.56
2023-04-07T09:03:17.637Z,1013.57
2023-04-07T09:04:17.912Z,1013.52
2023-04-07T09:05:18.032Z,1013.52
2023-04-07T09:06:18.196Z,1013.56
2023-04-07T09:07:18.461Z,1013.58
2023-04-07T09:08:18.623Z,1013.59
2023-04-07T09:09:18.813Z,1013.64
2023-04-07T09:10:18.976Z,1013.63
2023-04-07T09:11:19.265Z,1013.61
2023-04-07T09:12:19.411Z,1013.60
2023-04-07T09:13:19.710Z,1013.65
2023-04-07T09:14:19.904Z,1013.67
2023-04-07T09:15:20.070Z,1013.73
2023-04-07T09:16:20.322Z,1013.71
2023-04-07T09:17:20.488Z,1013.73
2023-04-07T09:18:20.677Z,1013.69
2023-04-07T09:19:20.859Z,1013.66
2023-04-07T09:20:21.086Z,1013.67
2023-04-07T09:21:21.220Z,1013.63
2023-04-07T09:22:21.531Z,1013.67
2023-04-07T09:23:21.708Z,1013.67
2023-04-07T09:24:21.902Z,1013.64
2023-04-07T09:25:22.116Z,1013.65
2023-04-07T09:26:22.292Z,1013.62
2023-04-07T09:27:22.468Z,1013.58
2023-04-07T09:28:22.654Z,1013.58
2023-04-07T09:29:22.956Z,1013.70
2023-04-07T09:30:23.072Z,1013.66
2023-04-07T09:31:23.324Z,1013.69
2023-04-07T09:32:23.511Z,1013.71
2023-04-07T09:33:23.676Z,1013.72
2023-04-07T09:34:23.902Z,1013.67
2023-04-07T09:35:24.088Z,1013.68
2023-04-07T09:36:24.408Z,1013.71
2023-04-07T09:37:24.601Z,1013.71
2023-04-07T09:38:24.796Z,1013.78
2023-04-07T09:39:24.987Z,1013.73
2023-04-07T09:40:25.302Z,1013.76
2023-04-07T09:41:25.492Z,1013.76
2023-04-07T09:42:25.773Z,1013.80
2023-04-07T09:43:25.974Z,1013.78
2023-04-07T09:44:26.179Z,1013.76
2023-04-07T09:45:34.000Z,1013.77
2023-04-07T09:46:27.676Z,1013.76
2023-04-07T09:47:26.864Z,1013.81
2023-04-07T09:48:27.136Z,1013.80
2023-04-07T09:49:27.357Z,1013.81
2023-04-07T09:50:27.545Z,1013.79
2023-04-07T09:51:27.723Z,1013.80
2023-04-07T09:52:28.046Z,1013.82
2023-04-07T09:53:28.228Z,1013.78
2023-04-07T09:54:28.571Z,1013.78
2023-04-07T09:55:28.747Z,1013.78
2023-04-07T09:56:28.989Z,1013.76
2023-04-07T09:57:29.177Z,1013.78
2023-04-07T09:58:29.361Z,1013.82
2023-04-07T09:59:29.562Z,1013.81
2023-04-07T10:00:29.742Z,1013.83
2023-04-07T10:01:29.984Z,1013.82
2023-04-07T10:02:30.243Z,1013.86
2023-04-07T10:03:30.466Z,1013.86
2023-04-07T10:04:30.670Z,1013.85
2023-04-07T10:05:30.841Z,1013.84
2023-04-07T10:06:31.141Z,1013.87
2023-04-07T10:07:31.330Z,1013.86
2023-04-07T10:08:31.537Z,1013.85
2023-04-07T10:09:31.728Z,1013.85
2023-04-07T10:10:31.915Z,1013.88
2023-04-07T10:11:32.106Z,1013.83
2023-04-07T10:12:32.391Z,1013.82
2023-04-07T10:13:32.711Z,1013.83
2023-04-07T10:14:32.924Z,1013.86
2023-04-07T10:15:33.132Z,1013.83
2023-04-07T10:16:33.313Z,1013.80
2023-04-07T10:17:33.539Z,1013.82
2023-04-07T10:18:33.720Z,1013.82
2023-04-07T10:19:33.893Z,1013.81
2023-04-07T10:20:34.089Z,1013.82
2023-04-07T10:21:34.264Z,1013.76
2023-04-07T10:22:34.557Z,1013.77
2023-04-07T10:23:34.748Z,1013.80
2023-04-07T10:24:34.936Z,1013.81
2023-04-07T10:25:35.101Z,1013.81
2023-04-07T10:26:35.414Z,1013.81
2023-04-07T10:27:35.577Z,1013.82
2023-04-07T10:28:35.880Z,1013.80
2023-04-07T10:29:36.051Z,1013.78
2023-04-07T10:30:36.247Z,1013.76
2023-04-07T10:31:36.466Z,1013.81
2023-04-07T10:32:44.720Z,1013.77
2023-04-07T10:33:36.915Z,1013.81
2023-04-07T10:34:37.225Z,1013.77
2023-04-07T10:35:37.434Z,1013.78
2023-04-07T10:36:37.704Z,1013.76
2023-04-07T10:37:38.011Z,1013.76
2023-04-07T10:38:38.274Z,1013.77
2023-04-07T10:39:38.481Z,1013.75
2023-04-07T10:40:38.654Z,1013.72
2023-04-07T10:41:38.824Z,1013.76
2023-04-07T10:42:39.130Z,1013.75
2023-04-07T10:43:39.313Z,1013.78
2023-04-07T10:44:39.543Z,1013.76
2023-04-07T10:45:39.724Z,1013.81
2023-04-07T10:46:40.056Z,1013.78
2023-04-07T10:47:40.221Z,1013.80
2023-04-07T10:48:40.513Z,1013.78
2023-04-07T10:49:40.707Z,1013.80
2023-04-07T10:50:40.946Z,1013.79
2023-04-07T10:51:41.127Z,1013.76
2023-04-07T10:52:41.346Z,1013.70
2023-04-07T10:53:41.534Z,1013.75
2023-04-07T10:54:41.851Z,1013.69
2023-04-07T10:55:42.028Z,1013.70
2023-04-07T10:56:42.316Z,1013.70
2023-04-07T10:57:43.184Z,1013.72
2023-04-07T10:58:42.694Z,1013.73
2023-04-07T10:59:42.903Z,1013.72
2023-04-07T11:00:43.114Z,1013.73
2023-04-07T11:01:43.456Z,1013.73
2023-04-07T11:02:43.643Z,1013.72
2023-04-07T11:03:44.058Z,1013.76
2023-04-07T11:04:44.232Z,1013.73
2023-04-07T11:05:44.276Z,1013.70
2023-04-07T11:06:44.477Z,1013.74
2023-04-07T11:07:44.673Z,1013.69
2023-04-07T11:08:46.230Z,1013.69
2023-04-07T11:09:45.130Z,1013.67
2023-04-07T11:10:45.307Z,1013.69
2023-04-07T11:11:45.492Z,1013.67
2023-04-07T11:12:45.709Z,1013.69
2023-04-07T11:13:46.242Z,1013.66
2023-04-07T11:14:46.237Z,1013.67
2023-04-07T11:15:46.434Z,1013.71
2023-04-07T11:16:46.617Z,1013.71
2023-04-07T11:17:46.919Z,1013.70
2023-04-07T11:18:47.066Z,1013.66
2023-04-07T11:19:47.281Z,1013.68
2023-04-07T11:20:47.452Z,1013.74
2023-04-07T11:21:47.667Z,1013.69
2023-04-07T11:22:47.912Z,1013.68
2023-04-07T11:23:48.724Z,1013.67
2023-04-07T11:24:48.412Z,1013.67
2023-04-07T11:25:48.595Z,1013.66
2023-04-07T11:26:50.636Z,1013.64
2023-04-07T11:27:49.157Z,1013.66
2023-04-07T11:28:49.364Z,1013.64
2023-04-07T11:29:49.558Z,1013.67
2023-04-07T11:30:49.771Z,1013.63
2023-04-07T11:31:49.989Z,1013.67
2023-04-07T11:32:50.257Z,1013.71
2023-04-07T11:33:50.619Z,1013.69
2023-04-07T11:34:50.645Z,1013.70
2023-04-07T11:35:50.874Z,1013.70
2023-04-07T11:36:51.070Z,1013.71
2023-04-07T11:37:51.254Z,1013.71
2023-04-07T11:38:51.444Z,1013.70
2023-04-07T11:39:51.651Z,1013.68
2023-04-07T11:40:51.844Z,1013.69
2023-04-07T11:41:52.091Z,1013.67
2023-04-07T11:42:52.271Z,1013.65
2023-04-07T11:43:52.451Z,1013.65
2023-04-07T11:44:52.773Z,1013.64
2023-04-07T11:45:53.015Z,1013.66
2023-04-07T11:46:53.350Z,1013.65
2023-04-07T11:47:53.610Z,1013.68
2023-04-07T11:48:53.766Z,1013.65
2023-04-07T11:49:54.092Z,1013.65
2023-04-07T11:50:54.295Z,1013.65
2023-04-07T11:51:54.476Z,1013.67
2023-04-07T11:52:54.793Z,1013.69
2023-04-07T11:53:54.999Z,1013.68
2023-04-07T11:54:55.220Z,1013.68
2023-04-07T11:55:55.437Z,1013.65
2023-04-07T11:56:55.759Z,1013.64
2023-04-07T11:57:56.003Z,1013.67
2023-04-07T11:58:56.193Z,1013.66
2023-04-07T11:59:56.433Z,1013.67
2023-04-07T12:00:56.629Z,1013.62
2023-04-07T12:01:57.889Z,1013.64
2023-04-07T12:02:57.158Z,1013.66
2023-04-07T12:03:57.583Z,1013.68
2023-04-07T12:04:57.671Z,1013.66
2023-04-07T12:05:57.729Z,1013.65
2023-04-07T12:06:57.918Z,1013.68
2023-04-07T12:07:58.110Z,1013.70